Terminal Aerodrome Forecast
Issued by NWS

Home | Current Version | Previous Version | Text Only | Print | Product List | Glossary On
Versions: 1 2 3 4 5 6 7 8 9 10 11 12 13 14 15 16 17 18
088
FTUS43 KMQT 241720
TAFIWD
TAF
KIWD 241720Z 2418/2518 20010KT P6SM FEW150
     FM250200 19011KT P6SM FEW200 WS010/21030KT
     FM250700 20010KT P6SM FEW200
     FM251200 21005KT P6SM BKN070
     FM251500 24005KT P6SM BKN040
     FM251700 26005KT P6SM BKN025=

USA.gov is the U.S. government's official web portal to all federal, state and local government web resources and services.